Time;durP1;ratioP1;P1;durP2;ratioP2;P2;SDS_P1;SDS_P2;PMS_P1;PMS_P2;Temp;Humidity;BMP_temperature;BMP_pressure;BME280_temperature;BME280_humidity;BME280_pressure;Samples;Min_cycle;Max_cycle;Signal;HPM_P1;HPM_P2
2022/12/09 03:02:36;;;;;;;18.50;16.57;;;-2.70;99.90;;;;;;5052285;23;20887;-78
2022/12/09 03:05:12;;;;;;;18.30;16.53;;;-2.70;99.90;;;;;;4929114;29;20452;-78
2022/12/09 03:07:44;;;;;;;18.60;16.80;;;-2.60;99.90;;;;;;4928230;29;20430;-78
2022/12/09 03:10:16;;;;;;;18.83;16.93;;;-2.60;99.90;;;;;;4927440;29;20479;-78
2022/12/09 03:12:47;;;;;;;18.40;16.70;;;-2.70;99.90;;;;;;4930937;29;20869;-78
2022/12/09 03:15:17;;;;;;;18.17;16.50;;;-2.70;99.90;;;;;;4933395;29;20832;-77
2022/12/09 03:17:45;;;;;;;18.20;16.50;;;-2.70;99.90;;;;;;4931294;29;20440;-78
2022/12/09 03:20:16;;;;;;;19.07;17.27;;;-2.70;99.90;;;;;;4928236;29;20436;-78
2022/12/09 03:22:45;;;;;;;19.33;17.53;;;-2.70;99.90;;;;;;4931832;29;20455;-78
2022/12/09 03:25:18;;;;;;;18.77;16.93;;;-2.80;99.90;;;;;;4933361;29;20881;-78
2022/12/09 03:27:50;;;;;;;18.80;17.03;;;-2.70;99.90;;;;;;4925039;29;20519;-78
2022/12/09 03:30:18;;;;;;;19.73;17.90;;;-2.70;99.90;;;;;;4929280;29;20480;-78
2022/12/09 03:32:47;;;;;;;18.50;16.70;;;-2.70;99.90;;;;;;4927747;29;20838;-78
2022/12/09 03:35:17;;;;;;;19.40;17.17;;;-2.70;99.90;;;;;;4931992;29;20467;-78
2022/12/09 03:37:45;;;;;;;19.60;17.80;;;-2.60;99.90;;;;;;4933356;29;20440;-78
2022/12/09 03:40:16;;;;;;;18.43;16.70;;;-2.60;99.90;;;;;;4932941;29;20470;-78
2022/12/09 03:42:48;;;;;;;20.13;18.13;;;-2.50;99.90;;;;;;4929456;29;20455;-79
2022/12/09 03:45:17;;;;;;;19.53;17.80;;;-2.50;99.90;;;;;;4928789;29;20444;-78
2022/12/09 03:47:45;;;;;;;19.37;17.57;;;-2.50;99.90;;;;;;4930288;29;20454;-78
2022/12/09 03:50:14;;;;;;;19.83;17.93;;;-2.50;99.90;;;;;;4930460;29;20451;-78
2022/12/09 03:52:45;;;;;;;19.60;17.97;;;-2.50;99.90;;;;;;4928030;29;20476;-78
2022/12/09 03:55:19;;;;;;;21.67;18.60;;;-2.50;99.90;;;;;;4923039;29;20456;-77
2022/12/09 03:57:48;;;;;;;21.67;19.57;;;-2.40;99.90;;;;;;4918020;29;20473;-77
2022/12/09 04:00:17;;;;;;;22.53;20.33;;;-2.30;99.90;;;;;;4906154;29;20880;-77
2022/12/09 04:02:44;;;;;;;21.83;19.63;;;-2.30;99.90;;;;;;4915635;29;20474;-77
2022/12/09 04:05:12;;;;;;;21.77;19.47;;;-2.30;99.90;;;;;;4918325;29;20444;-76
2022/12/09 04:07:39;;;;;;;22.57;20.27;;;-2.30;99.90;;;;;;4919893;29;20449;-77
2022/12/09 04:10:08;;;;;;;23.13;20.57;;;-2.30;99.90;;;;;;4919771;29;20511;-77
2022/12/09 04:12:34;;;;;;;22.10;19.67;;;-2.40;99.90;;;;;;4917052;29;20456;-77
2022/12/09 04:15:01;;;;;;;21.60;19.37;;;-2.40;99.90;;;;;;4917963;29;20456;-77
2022/12/09 04:17:28;;;;;;;21.47;19.37;;;-2.30;99.90;;;;;;4928562;29;20460;-78
2022/12/09 04:19:55;;;;;;;20.80;18.80;;;-2.40;99.90;;;;;;4929054;29;20431;-79
2022/12/09 04:22:24;;;;;;;20.70;18.73;;;-2.30;99.90;;;;;;4928240;29;21073;-78
2022/12/09 04:24:51;;;;;;;19.20;17.40;;;-2.40;99.90;;;;;;4934010;29;20442;-78
2022/12/09 04:27:18;;;;;;;21.63;19.30;;;-2.40;99.90;;;;;;4927130;29;20451;-78
2022/12/09 04:29:45;;;;;;;20.93;18.47;;;-2.40;99.90;;;;;;4930570;29;20564;-78
2022/12/09 04:32:12;;;;;;;20.97;18.77;;;-2.40;99.90;;;;;;4932047;29;20483;-78
2022/12/09 04:34:40;;;;;;;20.47;18.47;;;-2.40;99.90;;;;;;4929021;29;20503;-78
2022/12/09 04:37:07;;;;;;;21.00;18.97;;;-2.40;99.90;;;;;;4930867;29;20921;-79
2022/12/09 04:39:35;;;;;;;21.33;19.10;;;-2.40;99.90;;;;;;4925482;29;20452;-78
2022/12/09 04:42:02;;;;;;;19.93;17.93;;;-2.40;99.90;;;;;;4924284;29;20551;-78
2022/12/09 04:44:29;;;;;;;19.63;17.83;;;-2.40;99.90;;;;;;4920074;29;20466;-79
2022/12/09 04:46:55;;;;;;;20.03;17.90;;;-2.30;99.90;;;;;;4930831;29;20480;-79
2022/12/09 04:49:22;;;;;;;19.47;17.60;;;-2.30;99.90;;;;;;4932523;29;20478;-78
2022/12/09 04:51:49;;;;;;;19.70;17.97;;;-2.30;99.90;;;;;;4921329;29;20480;-76
2022/12/09 04:54:16;;;;;;;20.57;18.40;;;-2.30;99.90;;;;;;4923029;29;20463;-77
2022/12/09 04:56:44;;;;;;;19.73;17.93;;;-2.20;99.90;;;;;;4924620;29;20960;-77
2022/12/09 04:59:13;;;;;;;19.27;17.53;;;-2.20;99.90;;;;;;4917564;29;20543;-77
2022/12/09 05:01:40;;;;;;;20.87;18.97;;;-2.10;99.90;;;;;;4924213;29;20509;-78
2022/12/09 05:04:07;;;;;;;18.33;16.63;;;-2.10;99.90;;;;;;4921362;29;20456;-78
2022/12/09 05:06:34;;;;;;;19.87;18.10;;;-2.10;99.90;;;;;;4924917;29;20463;-77
2022/12/09 05:09:01;;;;;;;19.83;18.07;;;-2.20;99.90;;;;;;4927368;29;20444;-77
2022/12/09 05:11:29;;;;;;;20.53;18.83;;;-2.20;99.90;;;;;;4919588;29;20570;-77
2022/12/09 05:13:57;;;;;;;23.90;19.20;;;-2.20;99.90;;;;;;4926714;29;20452;-78
2022/12/09 05:16:24;;;;;;;20.33;18.43;;;-2.20;99.90;;;;;;4920989;29;20971;-78
2022/12/09 05:18:51;;;;;;;20.13;18.27;;;-2.10;99.90;;;;;;4925759;29;20543;-77
2022/12/09 05:21:20;;;;;;;20.77;18.87;;;-2.10;99.90;;;;;;4922263;29;20456;-77
2022/12/09 05:23:47;;;;;;;21.13;18.80;;;-2.00;99.90;;;;;;4926949;29;20466;-78
2022/12/09 05:26:17;;;;;;;20.63;18.83;;;-2.00;99.90;;;;;;4931022;29;20464;-77
2022/12/09 05:28:44;;;;;;;20.20;18.23;;;-2.00;99.90;;;;;;4928582;29;20453;-77
2022/12/09 05:31:16;;;;;;;19.87;18.10;;;-2.00;99.90;;;;;;4919565;29;20479;-78
2022/12/09 05:33:43;;;;;;;19.57;17.67;;;-2.00;99.90;;;;;;4918329;29;20504;-78
2022/12/09 05:36:11;;;;;;;20.13;18.20;;;-1.90;99.90;;;;;;4925416;29;20515;-78
2022/12/09 05:38:39;;;;;;;20.90;18.87;;;-2.00;99.90;;;;;;4923879;29;20444;-78
2022/12/09 05:41:06;;;;;;;21.10;18.83;;;-1.90;99.90;;;;;;4925662;29;20476;-77
2022/12/09 05:43:33;;;;;;;20.17;18.37;;;-1.90;99.90;;;;;;4925481;29;20444;-78
2022/12/09 05:46:01;;;;;;;19.73;18.07;;;-1.90;99.90;;;;;;4925032;29;20459;-78
2022/12/09 05:48:30;;;;;;;19.50;17.53;;;-1.80;99.90;;;;;;4919110;29;20455;-77
2022/12/09 05:50:58;;;;;;;19.17;17.47;;;-1.80;99.90;;;;;;4921042;29;20476;-77
2022/12/09 05:53:25;;;;;;;19.40;17.50;;;-1.80;99.90;;;;;;4927058;29;20436;-77
2022/12/09 05:55:51;;;;;;;19.77;18.03;;;-1.80;99.90;;;;;;4922937;29;20531;-77
2022/12/09 05:58:18;;;;;;;20.07;18.27;;;-1.80;99.90;;;;;;4925676;29;20459;-77
2022/12/09 06:00:45;;;;;;;19.13;17.43;;;-1.80;99.90;;;;;;4926352;29;20899;-77
2022/12/09 06:03:12;;;;;;;19.00;17.10;;;-1.60;99.90;;;;;;4927296;29;20430;-77
2022/12/09 06:05:41;;;;;;;20.00;18.10;;;-1.50;99.90;;;;;;4920945;29;20456;-77
2022/12/09 06:08:08;;;;;;;19.67;17.87;;;-1.40;99.90;;;;;;4920294;29;20440;-78
2022/12/09 06:10:38;;;;;;;20.93;18.87;;;-1.40;99.90;;;;;;4924582;29;21235;-77
2022/12/09 06:13:05;;;;;;;21.77;19.60;;;-1.40;99.90;;;;;;4924101;29;20448;-77
2022/12/09 06:15:33;;;;;;;20.17;18.40;;;-1.30;99.90;;;;;;4929920;29;20443;-77
2022/12/09 06:18:00;;;;;;;21.13;19.10;;;-1.30;99.90;;;;;;4924059;29;20467;-78
2022/12/09 06:20:27;;;;;;;20.57;18.67;;;-1.30;99.90;;;;;;4924927;29;20948;-77
2022/12/09 06:22:55;;;;;;;21.50;19.40;;;-1.30;99.90;;;;;;4924789;29;20447;-77
2022/12/09 06:25:22;;;;;;;21.13;19.03;;;-1.30;99.90;;;;;;4926993;29;20448;-77
2022/12/09 06:27:49;;;;;;;23.07;20.00;;;-1.30;99.90;;;;;;4922673;29;20435;-77
2022/12/09 06:30:16;;;;;;;21.73;19.70;;;-1.20;99.90;;;;;;4920563;29;20436;-77
2022/12/09 06:32:43;;;;;;;20.83;19.03;;;-1.10;99.90;;;;;;4923646;29;20861;-77
2022/12/09 06:35:10;;;;;;;20.83;18.83;;;-1.10;99.90;;;;;;4923302;29;20456;-77
2022/12/09 06:37:37;;;;;;;21.77;19.70;;;-1.00;99.90;;;;;;4924722;29;20464;-77
2022/12/09 06:40:06;;;;;;;21.83;19.70;;;-1.00;99.90;;;;;;4925823;29;20460;-77
2022/12/09 06:42:33;;;;;;;22.53;20.43;;;-1.00;99.90;;;;;;4925030;29;20511;-78
2022/12/09 06:45:00;;;;;;;21.60;19.40;;;-1.00;99.90;;;;;;4920235;29;20460;-77
2022/12/09 06:47:27;;;;;;;22.30;20.23;;;-1.00;99.90;;;;;;4921415;29;20519;-78
2022/12/09 06:49:56;;;;;;;22.30;20.13;;;-1.00;99.90;;;;;;4921321;29;20452;-78
2022/12/09 06:52:23;;;;;;;22.10;20.00;;;-1.00;99.90;;;;;;4925171;29;20563;-77
2022/12/09 06:54:50;;;;;;;21.43;19.60;;;-1.10;99.90;;;;;;4924689;29;20488;-77
2022/12/09 06:57:18;;;;;;;22.03;20.03;;;-1.00;99.90;;;;;;4926945;29;21027;-78
2022/12/09 06:59:45;;;;;;;21.63;19.67;;;-1.00;99.90;;;;;;4927814;29;20464;-78
2022/12/09 07:02:12;;;;;;;21.67;19.67;;;-0.90;99.90;;;;;;4921861;29;20484;-77
2022/12/09 07:04:39;;;;;;;22.67;20.63;;;-0.90;99.90;;;;;;4933066;29;20872;-78
2022/12/09 07:07:06;;;;;;;21.10;19.17;;;-0.90;99.90;;;;;;4923814;29;20456;-78
2022/12/09 07:09:33;;;;;;;20.30;18.50;;;-0.80;99.90;;;;;;4928417;29;20448;-77
2022/12/09 07:12:00;;;;;;;22.73;20.53;;;-0.90;99.90;;;;;;4932748;29;20476;-78
2022/12/09 07:14:28;;;;;;;20.70;18.90;;;-0.90;99.90;;;;;;4928311;29;20455;-78
2022/12/09 07:16:55;;;;;;;20.10;18.30;;;-0.90;99.90;;;;;;4929040;29;20450;-78
2022/12/09 07:19:23;;;;;;;20.33;18.43;;;-0.90;99.90;;;;;;4923794;29;20866;-77
2022/12/09 07:21:50;;;;;;;19.60;17.90;;;-0.90;99.90;;;;;;4926555;29;20460;-77
2022/12/09 07:24:18;;;;;;;19.57;17.87;;;-0.90;99.90;;;;;;4926255;29;20493;-77
2022/12/09 07:26:45;;;;;;;20.80;19.07;;;-0.80;99.90;;;;;;4930306;29;20631;-79
2022/12/09 07:29:12;;;;;;;20.33;18.33;;;-0.80;99.90;;;;;;4926837;29;21032;-77
2022/12/09 07:31:40;;;;;;;19.90;18.10;;;-0.80;99.90;;;;;;4930007;29;20482;-77
2022/12/09 07:34:07;;;;;;;20.00;18.30;;;-0.80;99.90;;;;;;4926904;29;20513;-77
2022/12/09 07:36:36;;;;;;;21.23;19.23;;;-0.70;99.90;;;;;;4926783;29;20980;-78
2022/12/09 07:39:06;;;;;;;20.80;18.73;;;-0.60;99.90;;;;;;4918710;29;20460;-77
2022/12/09 07:41:33;;;;;;;20.50;18.73;;;-0.60;99.90;;;;;;4925368;29;21000;-77
2022/12/09 07:44:00;;;;;;;19.90;18.00;;;-0.60;99.90;;;;;;4925011;29;20460;-77
2022/12/09 07:46:27;;;;;;;21.57;19.50;;;-0.50;99.90;;;;;;4913383;29;20444;-79
2022/12/09 07:48:57;;;;;;;20.20;18.40;;;-0.60;99.90;;;;;;4925739;29;20442;-77
2022/12/09 07:51:24;;;;;;;21.23;19.13;;;-0.50;99.90;;;;;;4923865;29;20499;-76
2022/12/09 07:53:52;;;;;;;20.83;19.03;;;-0.40;99.90;;;;;;4925183;29;20445;-78
2022/12/09 07:56:19;;;;;;;21.23;19.03;;;-0.30;99.90;;;;;;4928999;29;20492;-77
2022/12/09 07:58:49;;;;;;;21.30;19.07;;;-0.20;99.90;;;;;;4924731;29;20454;-78
2022/12/09 08:01:18;;;;;;;20.27;18.47;;;-0.20;99.90;;;;;;4922352;29;20493;-79
2022/12/09 08:03:46;;;;;;;20.47;18.70;;;-0.30;99.90;;;;;;4925273;29;20463;-78
2022/12/09 08:06:16;;;;;;;21.00;18.80;;;-0.40;99.90;;;;;;4929965;29;20527;-78
2022/12/09 08:08:43;;;;;;;20.40;18.50;;;-0.40;99.90;;;;;;4928718;29;20469;-78
2022/12/09 08:11:12;;;;;;;21.27;19.23;;;-0.30;99.90;;;;;;4928426;29;20459;-78
2022/12/09 08:13:40;;;;;;;20.27;18.33;;;-0.30;99.90;;;;;;4921770;29;20525;-77
2022/12/09 08:16:10;;;;;;;20.87;19.07;;;-0.30;99.90;;;;;;4920590;29;20512;-80
2022/12/09 08:18:37;;;;;;;19.60;17.77;;;-0.20;99.90;;;;;;4930178;29;20475;-77
2022/12/09 08:21:06;;;;;;;19.90;18.10;;;-0.20;99.90;;;;;;4924885;29;20469;-79
2022/12/09 08:23:35;;;;;;;21.00;19.00;;;-0.20;99.90;;;;;;4926489;29;20465;-77
2022/12/09 08:26:02;;;;;;;22.47;20.47;;;-0.10;99.90;;;;;;4922253;29;20444;-77
2022/12/09 08:28:30;;;;;;;21.43;19.23;;;-0.10;99.90;;;;;;4918779;29;20453;-77
2022/12/09 08:30:57;;;;;;;21.47;19.47;;;-0.10;99.90;;;;;;4925298;29;20531;-77
2022/12/09 08:33:24;;;;;;;21.37;19.47;;;-0.10;99.90;;;;;;4921843;29;20494;-77
2022/12/09 08:35:51;;;;;;;21.67;19.47;;;0.00;99.90;;;;;;4923241;29;20458;-77
2022/12/09 08:38:18;;;;;;;22.37;20.23;;;0.00;99.90;;;;;;4922017;29;20449;-77
2022/12/09 08:40:46;;;;;;;22.20;20.10;;;0.10;99.90;;;;;;4919435;29;20465;-77
2022/12/09 08:43:13;;;;;;;22.30;20.10;;;0.10;99.90;;;;;;4924022;29;20481;-78
2022/12/09 08:45:41;;;;;;;22.40;20.23;;;0.20;99.90;;;;;;4929247;29;20460;-77
2022/12/09 08:48:09;;;;;;;20.83;19.03;;;0.20;99.90;;;;;;4927410;29;20515;-77
2022/12/09 08:50:36;;;;;;;22.57;20.27;;;0.20;99.90;;;;;;4925778;29;20933;-78
2022/12/09 08:53:03;;;;;;;22.23;20.03;;;0.40;99.90;;;;;;4923837;29;20481;-79
2022/12/09 08:55:30;;;;;;;23.23;20.97;;;0.50;99.90;;;;;;4935155;29;20456;-79
2022/12/09 08:57:58;;;;;;;22.60;20.23;;;0.60;99.90;;;;;;4929757;29;20440;-79
2022/12/09 09:00:25;;;;;;;21.93;19.93;;;0.70;99.90;;;;;;4927420;29;20820;-79
2022/12/09 09:02:52;;;;;;;20.47;18.73;;;0.70;99.90;;;;;;4931786;29;20458;-79
2022/12/09 09:05:19;;;;;;;22.07;20.07;;;0.70;99.90;;;;;;4932366;29;20445;-79
2022/12/09 09:07:46;;;;;;;21.30;19.40;;;0.80;99.90;;;;;;4928131;29;20456;-78
2022/12/09 09:10:12;;;;;;;22.70;20.70;;;0.90;99.90;;;;;;4921911;29;20461;-77
2022/12/09 09:12:39;;;;;;;22.63;20.33;;;1.20;99.90;;;;;;4925979;29;20490;-78
2022/12/09 09:15:09;;;;;;;21.73;19.83;;;1.40;99.90;;;;;;4942981;23;20495;-78
2022/12/09 09:17:35;;;;;;;20.50;18.70;;;1.60;99.90;;;;;;4923192;29;20982;-79
2022/12/09 09:20:03;;;;;;;20.93;19.20;;;1.50;99.90;;;;;;4918649;29;20464;-77
2022/12/09 09:22:30;;;;;;;20.43;18.63;;;1.50;99.90;;;;;;4923618;29;20456;-79
2022/12/09 09:24:56;;;;;;;21.53;19.63;;;1.50;99.90;;;;;;4916595;29;20477;-78
2022/12/09 09:27:23;;;;;;;22.27;20.27;;;1.50;99.90;;;;;;4913856;29;20459;-78
2022/12/09 09:29:50;;;;;;;20.63;18.80;;;1.60;99.90;;;;;;4906221;29;20460;-78
2022/12/09 09:32:18;;;;;;;21.63;19.57;;;1.70;99.90;;;;;;4902995;29;20910;-78
2022/12/09 09:34:47;;;;;;;20.50;18.70;;;1.80;99.90;;;;;;4902121;29;21038;-78
2022/12/09 09:37:14;;;;;;;21.77;19.63;;;1.90;99.90;;;;;;4905185;29;20240;-78
2022/12/09 09:39:41;;;;;;;21.30;19.30;;;1.90;99.90;;;;;;4913833;29;20208;-80
2022/12/09 09:42:15;;;;;;;21.63;19.70;;;1.90;99.90;;;;;;4913456;29;20481;-80
2022/12/09 09:44:46;;;;;;;21.33;19.37;;;2.00;99.90;;;;;;4907403;29;20223;-80
2022/12/09 09:47:16;;;;;;;20.63;18.87;;;2.00;99.90;;;;;;4890369;29;20446;-81
2022/12/09 09:49:52;;;;;;;23.60;21.40;;;2.00;99.90;;;;;;4904628;29;20492;-81
2022/12/09 09:52:21;;;;;;;21.47;19.40;;;2.00;99.90;;;;;;4903256;29;20220;-79
2022/12/09 09:54:48;;;;;;;22.00;19.83;;;2.10;99.90;;;;;;4910469;29;20228;-78
2022/12/09 09:57:20;;;;;;;21.73;19.73;;;2.20;99.90;;;;;;4907078;29;20212;-78
2022/12/09 10:00:00;;;;;;;22.13;20.00;;;2.20;99.90;;;;;;4907782;29;20457;-76
2022/12/09 10:02:43;;;;;;;22.40;20.23;;;2.20;99.90;;;;;;4897925;29;20878;-78
2022/12/09 10:05:20;;;;;;;22.40;20.27;;;2.10;99.90;;;;;;4910915;29;20231;-78
2022/12/09 10:07:51;;;;;;;22.47;20.33;;;2.00;99.90;;;;;;4904402;29;20661;-78
2022/12/09 10:10:30;;;;;;;21.87;19.80;;;2.00;99.90;;;;;;4915320;29;20283;-80
2022/12/09 10:13:11;;;;;;;22.17;20.17;;;2.00;99.90;;;;;;4909999;29;20207;-80
2022/12/09 10:15:50;;;;;;;22.17;20.17;;;1.90;99.90;;;;;;4911013;29;20220;-78
2022/12/09 10:18:24;;;;;;;22.53;20.23;;;1.80;99.90;;;;;;4903322;29;20293;-78
2022/12/09 10:20:53;;;;;;;21.30;19.47;;;1.70;99.90;;;;;;4909989;29;20200;-78
2022/12/09 10:23:21;;;;;;;21.97;19.93;;;1.80;99.90;;;;;;4907116;29;20448;-78
2022/12/09 10:25:52;;;;;;;21.23;19.33;;;1.80;99.90;;;;;;4905464;29;20510;-78
2022/12/09 10:28:23;;;;;;;22.63;20.30;;;1.80;99.90;;;;;;4903708;29;20210;-77
2022/12/09 10:30:51;;;;;;;22.13;20.03;;;1.80;99.90;;;;;;4906457;29;20456;-77
2022/12/09 10:33:23;;;;;;;22.83;20.73;;;1.90;99.90;;;;;;4910954;29;20474;-77
2022/12/09 10:35:52;;;;;;;21.50;19.47;;;1.80;99.90;;;;;;4916926;29;20972;-78
2022/12/09 10:38:20;;;;;;;22.53;20.37;;;1.70;99.90;;;;;;4920087;29;20200;-78
2022/12/09 10:40:56;;;;;;;20.73;18.83;;;1.70;99.90;;;;;;4897829;29;20213;-78
2022/12/09 10:43:34;;;;;;;21.67;19.50;;;1.60;99.90;;;;;;4906324;29;20548;-78
2022/12/09 10:46:02;;;;;;;20.43;18.50;;;1.60;99.90;;;;;;4906205;29;20448;-78
2022/12/09 10:48:31;;;;;;;21.37;19.37;;;1.70;99.90;;;;;;4906449;29;20443;-78
2022/12/09 10:51:01;;;;;;;21.53;19.37;;;1.70;99.90;;;;;;4910586;29;20207;-78
2022/12/09 10:53:29;;;;;;;22.10;19.83;;;1.80;99.90;;;;;;4893928;29;20218;-77
2022/12/09 10:55:59;;;;;;;20.43;18.50;;;1.80;99.90;;;;;;4907171;29;20478;-78
2022/12/09 10:58:27;;;;;;;21.77;19.67;;;1.90;99.90;;;;;;4915131;29;20453;-78
2022/12/09 11:01:04;;;;;;;21.67;19.50;;;2.00;99.90;;;;;;4905270;29;20205;-79
2022/12/09 11:03:33;;;;;;;21.60;19.43;;;1.90;99.90;;;;;;4903419;29;20196;-77
2022/12/09 11:06:11;;;;;;;22.57;20.37;;;1.80;99.90;;;;;;4915475;29;20216;-78
2022/12/09 11:08:40;;;;;;;21.70;19.60;;;1.80;99.90;;;;;;4899729;29;20665;-79
2022/12/09 11:11:07;;;;;;;22.60;20.40;;;1.90;99.90;;;;;;4910985;29;20935;-79
2022/12/09 11:13:40;;;;;;;22.00;19.80;;;1.90;99.90;;;;;;4918768;29;20215;-78
2022/12/09 11:16:08;;;;;;;23.97;21.50;;;1.90;99.90;;;;;;4917958;29;20230;-78
2022/12/09 11:18:43;;;;;;;22.27;20.17;;;2.00;99.90;;;;;;4907780;29;20200;-78
2022/12/09 11:21:34;;;;;;;20.80;18.80;;;2.00;99.90;;;;;;4900970;29;20467;-78
2022/12/09 11:24:02;;;;;;;23.10;20.73;;;1.90;99.90;;;;;;4906677;29;20196;-78
2022/12/09 11:26:36;;;;;;;21.93;19.73;;;2.00;99.90;;;;;;4918398;29;20220;-78
2022/12/09 11:29:12;;;;;;;21.57;19.47;;;2.00;99.90;;;;;;4912288;29;20670;-78
2022/12/09 11:31:40;;;;;;;21.13;19.03;;;2.10;99.90;;;;;;4909272;29;20665;-78
2022/12/09 11:34:21;;;;;;;22.87;20.57;;;2.10;99.90;;;;;;4909693;29;20902;-78
2022/12/09 11:36:52;;;;;;;23.13;20.93;;;2.00;99.90;;;;;;4907835;29;20435;-78
2022/12/09 11:39:26;;;;;;;22.93;20.67;;;2.00;99.90;;;;;;4904379;29;20208;-78
2022/12/09 11:42:16;;;;;;;22.20;20.20;;;2.10;99.90;;;;;;4905856;29;20209;-78
2022/12/09 11:44:49;;;;;;;23.20;21.10;;;2.10;99.90;;;;;;4900383;29;20266;-81
2022/12/09 11:47:22;;;;;;;22.40;20.00;;;2.20;99.90;;;;;;4912210;29;20201;-80
2022/12/09 11:49:52;;;;;;;23.83;21.37;;;2.20;99.90;;;;;;4911854;29;20224;-81
2022/12/09 11:52:27;;;;;;;23.27;21.10;;;2.10;99.90;;;;;;4916864;29;20203;-78
2022/12/09 11:55:11;;;;;;;21.73;19.63;;;2.10;99.90;;;;;;4895789;29;20475;-81
2022/12/09 11:57:46;;;;;;;22.60;20.50;;;2.20;99.90;;;;;;4906334;29;20980;-78
2022/12/09 12:00:18;;;;;;;22.20;20.10;;;2.20;99.90;;;;;;4902743;29;20210;-78
2022/12/09 12:02:50;;;;;;;26.30;21.87;;;2.20;99.90;;;;;;4912511;29;20196;-78
2022/12/09 12:05:22;;;;;;;23.90;21.40;;;2.10;99.90;;;;;;4908707;29;20555;-79
2022/12/09 12:08:01;;;;;;;23.37;20.93;;;2.00;99.90;;;;;;4909298;29;20576;-78
2022/12/09 12:10:31;;;;;;;23.90;21.50;;;2.00;99.90;;;;;;4891789;29;20282;-78
2022/12/09 12:13:04;;;;;;;22.93;20.63;;;2.00;99.90;;;;;;4906953;29;20562;-79
2022/12/09 12:15:39;;;;;;;25.37;22.67;;;2.00;99.90;;;;;;4895690;29;20489;-78
2022/12/09 12:18:13;;;;;;;24.83;22.40;;;2.10;99.90;;;;;;4905351;29;20462;-79
2022/12/09 12:20:56;;;;;;;23.47;20.97;;;2.00;99.90;;;;;;4913040;29;20535;-78
2022/12/09 12:23:38;;;;;;;23.90;21.50;;;2.10;99.90;;;;;;4915467;29;20203;-78
2022/12/09 12:26:14;;;;;;;23.53;21.20;;;2.20;99.90;;;;;;4912270;29;20480;-79
2022/12/09 12:28:59;;;;;;;23.70;21.50;;;2.20;99.90;;;;;;4906986;29;20192;-79
2022/12/09 12:31:47;;;;;;;23.53;21.07;;;2.10;99.90;;;;;;4901775;29;20204;-78
2022/12/09 12:34:21;;;;;;;24.77;22.40;;;2.20;99.90;;;;;;4912167;29;20476;-79
2022/12/09 12:36:56;;;;;;;23.77;21.47;;;2.10;99.90;;;;;;4904874;29;20740;-79
2022/12/09 12:39:38;;;;;;;24.23;21.83;;;2.10;99.90;;;;;;4916149;29;20207;-77
2022/12/09 12:42:18;;;;;;;22.57;20.50;;;2.10;99.90;;;;;;4903385;29;20205;-77
2022/12/09 12:47:56;;;;;;;24.57;22.17;;;2.10;99.90;;;;;;4899624;29;20995;-79
2022/12/09 12:50:43;;;;;;;24.50;22.07;;;2.10;99.90;;;;;;4904440;29;20447;-78
2022/12/09 12:53:22;;;;;;;23.33;20.83;;;2.10;99.90;;;;;;4910270;29;20496;-79
2022/12/09 12:55:58;;;;;;;22.70;20.50;;;2.00;99.90;;;;;;4909417;29;20475;-78
2022/12/09 12:58:38;;;;;;;23.27;20.87;;;2.00;99.90;;;;;;4908141;29;20440;-79
2022/12/09 13:01:20;;;;;;;23.13;20.83;;;2.00;99.90;;;;;;4905619;29;20876;-79
2022/12/09 13:03:55;;;;;;;23.67;21.50;;;2.00;99.90;;;;;;4906504;29;20549;-77
2022/12/09 13:06:33;;;;;;;22.67;20.47;;;2.00;99.90;;;;;;4908510;29;20486;-78
2022/12/09 13:09:05;;;;;;;24.37;21.73;;;1.90;99.90;;;;;;4909270;29;20469;-79
2022/12/09 13:11:41;;;;;;;23.83;21.30;;;1.90;99.90;;;;;;4902098;29;20211;-77
2022/12/09 13:14:13;;;;;;;25.13;22.43;;;1.90;99.90;;;;;;4913239;29;20481;-78
2022/12/09 13:16:42;;;;;;;24.40;22.10;;;1.90;99.90;;;;;;4908029;29;20451;-78
2022/12/09 13:19:15;;;;;;;25.03;22.43;;;1.90;99.90;;;;;;4905397;29;20444;-78
2022/12/09 13:21:44;;;;;;;25.33;22.53;;;1.90;99.90;;;;;;4904490;29;20612;-78
2022/12/09 13:24:23;;;;;;;25.60;23.00;;;1.90;99.90;;;;;;4902831;29;20994;-79
2022/12/09 13:26:58;;;;;;;24.00;21.77;;;2.00;99.90;;;;;;4909674;29;20470;-79
2022/12/09 13:29:34;;;;;;;25.47;22.77;;;2.00;99.90;;;;;;4908572;29;20444;-77
2022/12/09 13:32:07;;;;;;;26.53;23.73;;;2.00;99.90;;;;;;4907508;29;20448;-79
2022/12/09 13:34:38;;;;;;;25.97;23.43;;;2.00;99.90;;;;;;4886173;29;20518;-79
2022/12/09 13:37:25;;;;;;;24.53;22.13;;;2.00;99.90;;;;;;4915602;29;20802;-79
2022/12/09 13:39:57;;;;;;;25.60;22.73;;;2.00;99.90;;;;;;4906818;29;20447;-80
2022/12/09 13:43:00;;;;;;;24.00;21.70;;;2.00;99.90;;;;;;4917994;29;20515;-80
2022/12/09 13:45:34;;;;;;;23.63;21.33;;;2.00;99.90;;;;;;4917668;29;20704;-80
2022/12/09 13:48:05;;;;;;;25.60;22.80;;;2.00;99.90;;;;;;4910137;29;20456;-79
2022/12/09 13:50:37;;;;;;;25.37;22.93;;;2.00;99.90;;;;;;4903080;29;20208;-81
2022/12/09 13:53:06;;;;;;;25.70;23.00;;;2.10;99.90;;;;;;4904186;29;20460;-80
2022/12/09 13:55:38;;;;;;;25.53;23.07;;;2.00;99.90;;;;;;4902786;29;21082;-81
2022/12/09 13:58:32;;;;;;;27.60;24.70;;;2.00;99.90;;;;;;4900788;29;20476;-82
2022/12/09 14:01:05;;;;;;;27.20;24.50;;;2.00;99.90;;;;;;4910366;29;20459;-82
2022/12/09 14:03:34;;;;;;;26.27;23.57;;;1.90;99.90;;;;;;4892107;29;20463;-80
2022/12/09 14:06:06;;;;;;;27.33;24.60;;;1.90;99.90;;;;;;4904313;29;20302;-81
2022/12/09 14:08:37;;;;;;;26.83;24.03;;;1.90;99.90;;;;;;4898876;29;20444;-81
2022/12/09 14:11:38;;;;;;;28.33;25.00;;;1.80;99.90;;;;;;4909720;29;20251;-81
2022/12/09 14:14:49;;;;;;;28.20;25.27;;;1.80;99.90;;;;;;4910838;29;20481;-80
2022/12/09 14:18:00;;;;;;;28.40;25.60;;;1.80;99.90;;;;;;4905878;29;20458;-81
2022/12/09 14:20:37;;;;;;;29.07;26.03;;;1.70;99.90;;;;;;4893781;29;20448;-80
2022/12/09 14:23:18;;;;;;;29.17;25.87;;;1.60;99.90;;;;;;4905543;29;20464;-81
2022/12/09 14:26:03;;;;;;;30.80;26.50;;;1.70;99.90;;;;;;4907684;29;20527;-82
2022/12/09 14:28:52;;;;;;;29.60;26.40;;;1.70;99.90;;;;;;4908354;29;20455;-82
2022/12/09 14:31:57;;;;;;;30.10;27.00;;;1.70;99.90;;;;;;4901841;29;20448;-80
2022/12/09 14:34:48;;;;;;;28.70;25.80;;;1.70;99.90;;;;;;4906551;29;20547;-79
2022/12/09 14:37:41;;;;;;;29.97;26.77;;;1.70;99.90;;;;;;4901688;29;20466;-79
2022/12/09 14:40:48;;;;;;;31.47;28.00;;;1.60;99.90;;;;;;4910592;29;20448;-79
2022/12/09 14:43:52;;;;;;;28.40;25.50;;;1.60;99.90;;;;;;4883132;29;20455;-80
2022/12/09 14:46:23;;;;;;;31.77;28.67;;;1.60;99.90;;;;;;4905396;29;20447;-81
2022/12/09 14:48:55;;;;;;;30.67;27.53;;;1.60;99.90;;;;;;4903306;29;20691;-78
2022/12/09 14:51:27;;;;;;;29.17;26.13;;;1.70;99.90;;;;;;4896997;29;20560;-81
2022/12/09 14:53:58;;;;;;;30.87;27.30;;;1.70;99.90;;;;;;4886322;29;20506;-79
2022/12/09 14:56:26;;;;;;;30.03;26.90;;;1.60;99.90;;;;;;4893596;29;20491;-78
2022/12/09 14:58:56;;;;;;;30.67;27.47;;;1.60;99.90;;;;;;4888366;29;20468;-80
2022/12/09 15:01:23;;;;;;;29.83;26.80;;;1.60;99.90;;;;;;4891083;29;21087;-79
2022/12/09 15:03:55;;;;;;;30.20;26.93;;;1.60;99.90;;;;;;4891374;29;20199;-79
2022/12/09 15:06:25;;;;;;;31.33;28.10;;;1.60;99.90;;;;;;4890423;29;20479;-80
2022/12/09 15:08:55;;;;;;;30.90;27.70;;;1.50;99.90;;;;;;4893544;29;20448;-81
2022/12/09 15:11:25;;;;;;;34.70;27.87;;;1.50;99.90;;;;;;4894058;29;20465;-81
2022/12/09 15:13:54;;;;;;;33.90;29.53;;;1.50;99.90;;;;;;4902988;29;20479;-80
2022/12/09 15:16:24;;;;;;;31.40;28.10;;;1.60;99.90;;;;;;4896263;29;20509;-81
2022/12/09 15:18:52;;;;;;;33.63;29.60;;;1.50;99.90;;;;;;4896497;29;20449;-79
2022/12/09 15:21:29;;;;;;;33.77;29.40;;;1.50;99.90;;;;;;4902698;29;20462;-80
2022/12/09 15:23:57;;;;;;;33.27;28.70;;;1.50;99.90;;;;;;4911839;29;20459;-79
2022/12/09 15:26:27;;;;;;;33.47;29.87;;;1.50;99.90;;;;;;4901207;29;20475;-81
2022/12/09 15:28:55;;;;;;;31.77;28.53;;;1.40;99.90;;;;;;4898820;29;20461;-79
2022/12/09 15:31:25;;;;;;;35.27;29.40;;;1.50;99.90;;;;;;4888052;29;20551;-78
2022/12/09 15:33:54;;;;;;;34.00;29.00;;;1.40;99.90;;;;;;4888835;29;20472;-79
2022/12/09 15:36:25;;;;;;;33.97;30.30;;;1.40;99.90;;;;;;4898770;29;20485;-79
2022/12/09 15:38:57;;;;;;;32.40;28.70;;;1.40;99.90;;;;;;4897953;29;20465;-79
2022/12/09 15:44:16;;;;;;;29.80;26.67;;;1.40;99.90;;;;;;4895541;29;20453;-78
2022/12/09 15:46:45;;;;;;;32.37;28.53;;;1.50;99.90;;;;;;4899852;29;20444;-80
2022/12/09 15:49:16;;;;;;;31.67;28.17;;;1.60;99.90;;;;;;4907514;29;21293;-81
2022/12/09 15:51:47;;;;;;;31.33;27.70;;;1.60;99.90;;;;;;4904071;29;20460;-81
2022/12/09 15:54:20;;;;;;;34.43;29.70;;;1.60;99.90;;;;;;4912025;29;20827;-80
2022/12/09 15:56:52;;;;;;;34.33;29.97;;;1.70;99.90;;;;;;4907611;29;20463;-82
2022/12/09 15:59:25;;;;;;;32.97;27.90;;;1.60;99.90;;;;;;4912223;29;20462;-81
2022/12/09 16:01:54;;;;;;;32.30;28.53;;;1.60;99.90;;;;;;4908523;29;20455;-78